Mackenzie Airport
CYZY : now visible

Airfield :











YOU CAN JOIN US ON...

 
LOGIN :

Register | Disclaimer

   EN    FR    IT 

 









Legend :    VFR   Marginal VFR   IFR   Intensive IFR   Very Intensive IFR
Visi :
Ceiling :
>= 8 km
>= 3000ft
5 to 8 km
1000 to 3000 ft
1500m to 5 km
500 to 1000 ft
800 to 1500m
200 to 500 ft
< 800m
< 200 ft
Symbols :   Thunderstorms  Fog  Heavy snow  Heavy precipitations  Wind > 20 kt






- Airport Elevation : 2264 ft
- IATA code : YZY


CYZY - Mackenzie

CURRENT METAR :
  • 070000Z AUTO 24011G16KT 9SM FEW060 SCT077 BKN092 04/M08 A2952 RMK SLP030

EXPIRED METARs :
  • 062300Z AUTO 27015G24KT 9SM CLR 05/M08 A2951 RMK SLP027
  • 062200Z AUTO 25009G18KT 200V280 9SM FEW065 05/M08 A2951 RMK SLP025

TAF TAF CYZY
Valid from the 07 at 01:00 until the 07 at 09:00 UTC


070038Z 0701/0709 22012G22KT P6SM SCT050
TEMPO 0701/0706 P6SM -SHRA BKN060
FM070600 23012KT P6SM SCT080 RMK FCST BASED ON AUTO OBS. NXT FCST BY 070700Z



MET'MAP, your aeronautical weather chart ! - Copyright ORBIFLY December 2007 - Disclaimer

ORBIFLY MET'MAP TEAM :

Programming & Development : Alexandra Zaïnal
Concept & original design : Baudouin d'Aumeries
Assistance for programming : Marc-Olivier Méhu
Technical & hardware support : Manuel Goepfert

Contact : metmap@orbifly.com




SOURCES & CREDITS :

   NOAA       Earth
Advisory